createdAt,value
2022-10-03T00:02:34.003Z,10.40
2022-10-03T00:05:57.186Z,10.40
2022-10-03T00:09:01.811Z,10.50
2022-10-03T00:12:21.958Z,10.50
2022-10-03T00:15:10.151Z,10.40
2022-10-03T00:18:04.815Z,10.40
2022-10-03T00:21:06.244Z,10.40
2022-10-03T00:24:47.081Z,10.40
2022-10-03T00:27:44.014Z,10.40
2022-10-03T00:30:24.511Z,10.40
2022-10-03T00:33:18.786Z,10.40
2022-10-03T00:36:49.346Z,10.40
2022-10-03T00:39:48.994Z,10.40
2022-10-03T00:43:20.179Z,10.30
2022-10-03T00:46:07.857Z,10.40
2022-10-03T00:49:08.730Z,10.30
2022-10-03T00:52:12.527Z,10.40
2022-10-03T00:55:42.015Z,10.40
2022-10-03T00:58:30.458Z,10.40
2022-10-03T01:01:42.458Z,10.40
2022-10-03T01:04:54.412Z,10.40
2022-10-03T01:08:20.943Z,10.40
2022-10-03T01:11:50.771Z,10.40
2022-10-03T01:15:10.488Z,10.40
2022-10-03T01:18:45.343Z,10.30
2022-10-03T01:21:47.363Z,10.30
2022-10-03T01:25:01.513Z,10.20
2022-10-03T01:28:32.267Z,10.30
2022-10-03T01:31:12.240Z,10.20
2022-10-03T01:34:35.591Z,10.20
2022-10-03T01:37:32.335Z,10.30
2022-10-03T01:40:30.352Z,10.20
2022-10-03T01:43:22.476Z,10.20
2022-10-03T01:46:26.392Z,10.20
2022-10-03T01:49:40.116Z,10.20
2022-10-03T01:52:41.680Z,10.20
2022-10-03T01:55:35.740Z,10.20
2022-10-03T01:58:47.621Z,10.20
2022-10-03T02:01:50.079Z,10.20
2022-10-03T02:04:58.817Z,10.20
2022-10-03T02:07:41.254Z,10.10
2022-10-03T02:10:48.988Z,10.10
2022-10-03T02:13:50.032Z,10.10
2022-10-03T02:16:57.317Z,10.00
2022-10-03T02:19:45.641Z,10.00
2022-10-03T02:22:43.197Z,10.10
2022-10-03T02:25:36.152Z,10.00
2022-10-03T02:28:56.765Z,10.00
2022-10-03T02:32:29.073Z,10.00
2022-10-03T02:35:51.341Z,10.00
2022-10-03T02:38:18.065Z,10.00
2022-10-03T02:41:32.611Z,10.00
2022-10-03T02:44:46.186Z,10.00
2022-10-03T02:48:30.180Z,10.00
2022-10-03T02:52:04.294Z,10.00
2022-10-03T02:55:08.821Z,9.90
2022-10-03T02:58:42.705Z,9.90
2022-10-03T03:01:24.462Z,9.90
2022-10-03T03:05:07.421Z,9.90
2022-10-03T03:08:24.293Z,9.80
2022-10-03T03:11:39.378Z,9.80
2022-10-03T03:14:45.314Z,9.80
2022-10-03T03:17:48.112Z,9.80
2022-10-03T03:20:52.070Z,9.80
2022-10-03T03:24:42.690Z,9.80
2022-10-03T03:27:49.665Z,9.70
2022-10-03T03:30:24.842Z,9.60
2022-10-03T03:33:31.649Z,9.60
2022-10-03T03:36:34.963Z,9.70
2022-10-03T03:39:30.458Z,9.70
2022-10-03T03:42:31.798Z,9.70
2022-10-03T03:45:20.419Z,9.70
2022-10-03T03:48:38.294Z,9.70
2022-10-03T03:51:46.874Z,9.70
2022-10-03T03:55:06.112Z,9.70
2022-10-03T03:58:08.295Z,9.70
2022-10-03T04:01:12.631Z,9.60
2022-10-03T04:04:15.284Z,9.60
2022-10-03T04:07:41.450Z,9.60
2022-10-03T04:11:12.193Z,9.60
2022-10-03T04:14:16.515Z,9.60
2022-10-03T04:17:48.047Z,9.60
2022-10-03T04:21:19.139Z,9.60
2022-10-03T04:24:22.132Z,9.60
2022-10-03T04:27:26.131Z,9.60
2022-10-03T04:30:17.599Z,9.60
2022-10-03T04:33:43.169Z,9.50
2022-10-03T04:36:58.459Z,9.50
2022-10-03T04:40:15.912Z,9.50
2022-10-03T04:43:15.704Z,9.50
2022-10-03T04:45:57.413Z,9.50
2022-10-03T04:48:46.276Z,9.50
2022-10-03T04:51:55.770Z,9.50
2022-10-03T04:55:06.539Z,9.50
2022-10-03T04:58:15.792Z,9.40
2022-10-03T05:01:14.989Z,9.50
2022-10-03T05:04:23.125Z,9.50
2022-10-03T05:07:25.436Z,9.40
2022-10-03T05:10:03.053Z,9.40
2022-10-03T05:13:01.220Z,9.40
2022-10-03T05:16:07.810Z,9.40
2022-10-03T05:18:54.165Z,9.40
2022-10-03T05:21:48.857Z,9.40
2022-10-03T05:24:45.229Z,9.40
2022-10-03T05:27:51.802Z,9.40
2022-10-03T05:30:53.247Z,9.40
2022-10-03T05:34:04.116Z,9.40
2022-10-03T05:37:16.597Z,9.40
2022-10-03T05:40:04.331Z,9.50
2022-10-03T05:42:58.565Z,9.50
2022-10-03T05:45:40.157Z,9.50
2022-10-03T05:48:48.978Z,9.50
2022-10-03T05:51:50.025Z,9.50
2022-10-03T05:55:09.748Z,9.40
2022-10-03T05:58:20.469Z,9.40
2022-10-03T06:01:24.594Z,9.40
2022-10-03T06:04:53.368Z,9.40
2022-10-03T06:07:30.732Z,9.50
2022-10-03T06:10:25.821Z,9.50
2022-10-03T06:13:33.925Z,9.50
2022-10-03T06:16:46.094Z,9.50
2022-10-03T06:20:10.638Z,9.60
2022-10-03T06:23:53.677Z,9.60
2022-10-03T06:27:29.894Z,9.70
2022-10-03T06:30:43.577Z,9.80
2022-10-03T06:33:53.433Z,9.80
2022-10-03T06:37:16.010Z,9.90
2022-10-03T06:40:47.362Z,9.90
2022-10-03T06:43:53.213Z,9.90
2022-10-03T06:47:00.502Z,10.00
2022-10-03T06:50:22.307Z,10.10
2022-10-03T06:53:41.954Z,10.20
2022-10-03T06:57:00.732Z,10.30
2022-10-03T07:00:01.555Z,10.30
2022-10-03T07:03:26.375Z,10.30
2022-10-03T07:06:42.227Z,10.40
2022-10-03T07:10:39.631Z,10.60
2022-10-03T07:14:21.391Z,10.60
2022-10-03T07:17:45.626Z,10.50
2022-10-03T07:21:14.795Z,10.50
2022-10-03T07:24:34.791Z,10.60
2022-10-03T07:27:30.315Z,10.70
2022-10-03T07:30:24.163Z,10.80
2022-10-03T07:34:00.035Z,10.80
2022-10-03T07:37:38.519Z,10.80
2022-10-03T07:40:48.191Z,11.00
2022-10-03T07:43:51.620Z,11.00
2022-10-03T07:46:40.535Z,11.10
2022-10-03T07:50:28.092Z,11.30
2022-10-03T07:53:21.051Z,11.70
2022-10-03T07:56:26.828Z,12.10
2022-10-03T07:59:52.271Z,12.20
2022-10-03T08:04:20.339Z,12.50
2022-10-03T08:07:26.592Z,12.40
2022-10-03T08:10:29.202Z,12.50
2022-10-03T08:13:33.700Z,14.20
2022-10-03T08:16:30.924Z,14.50
2022-10-03T08:19:31.592Z,15.00
2022-10-03T08:22:18.957Z,15.00
2022-10-03T08:25:41.455Z,14.20
2022-10-03T08:28:43.600Z,13.60
2022-10-03T08:31:44.470Z,13.00
2022-10-03T08:35:18.148Z,12.70
2022-10-03T08:38:33.432Z,13.00
2022-10-03T08:41:41.995Z,14.80
2022-10-03T08:45:18.392Z,14.90
2022-10-03T08:48:33.190Z,14.90
2022-10-03T08:51:56.420Z,15.70
2022-10-03T08:55:02.272Z,17.10
2022-10-03T08:58:31.711Z,17.50
2022-10-03T09:01:53.205Z,16.70
2022-10-03T09:05:18.191Z,14.60
2022-10-03T09:08:40.221Z,14.10
2022-10-03T09:11:38.108Z,14.10
2022-10-03T09:14:50.936Z,14.70
2022-10-03T09:18:05.305Z,14.30
2022-10-03T09:21:37.131Z,14.40
2022-10-03T09:24:42.698Z,16.00
2022-10-03T09:27:31.461Z,18.30
2022-10-03T09:31:03.969Z,20.50
2022-10-03T09:34:28.706Z,21.80
2022-10-03T09:38:03.501Z,21.40
2022-10-03T09:41:16.745Z,20.30
2022-10-03T09:44:29.922Z,20.00
2022-10-03T09:47:31.341Z,17.90
2022-10-03T09:50:56.909Z,16.50
2022-10-03T09:53:52.965Z,16.20
2022-10-03T09:56:25.985Z,16.30
2022-10-03T09:59:35.110Z,17.00
2022-10-03T10:02:31.940Z,16.80
2022-10-03T10:05:53.614Z,16.20
2022-10-03T10:09:46.374Z,15.90
2022-10-03T10:13:11.763Z,15.20
2022-10-03T10:16:52.222Z,15.00
2022-10-03T10:19:55.707Z,15.20
2022-10-03T10:22:47.467Z,15.40
2022-10-03T10:26:01.890Z,15.10
2022-10-03T10:28:53.131Z,14.70
2022-10-03T10:32:27.478Z,14.30
2022-10-03T10:35:29.650Z,14.10
2022-10-03T10:38:25.081Z,13.90
2022-10-03T10:41:28.842Z,13.90
2022-10-03T10:44:58.638Z,14.40
2022-10-03T10:48:21.144Z,15.10
2022-10-03T10:51:42.391Z,15.40
2022-10-03T10:55:06.373Z,16.10
2022-10-03T10:58:46.019Z,16.40
2022-10-03T11:02:20.329Z,16.80
2022-10-03T11:06:22.703Z,16.00
2022-10-03T11:09:29.960Z,15.40
2022-10-03T11:12:44.051Z,15.00
2022-10-03T11:16:08.147Z,15.00
2022-10-03T11:19:05.964Z,15.10
2022-10-03T11:22:52.295Z,17.50
2022-10-03T11:26:46.508Z,17.40
2022-10-03T11:30:07.524Z,17.00
2022-10-03T11:33:29.988Z,16.00
2022-10-03T11:36:43.013Z,15.70
2022-10-03T11:40:11.415Z,15.90
2022-10-03T11:43:33.858Z,16.10
2022-10-03T11:46:54.240Z,16.30
2022-10-03T11:50:08.994Z,17.30
2022-10-03T11:53:15.963Z,16.50
2022-10-03T11:55:54.296Z,15.40
2022-10-03T11:58:54.232Z,14.50
2022-10-03T12:01:55.498Z,13.90
2022-10-03T12:05:29.458Z,13.70
2022-10-03T12:08:55.954Z,14.30
2022-10-03T12:11:46.661Z,15.10
2022-10-03T12:14:42.182Z,16.60
2022-10-03T12:17:21.509Z,19.60
2022-10-03T12:20:23.589Z,20.20
2022-10-03T12:23:38.509Z,19.20
2022-10-03T12:26:17.861Z,17.20
2022-10-03T12:28:56.158Z,15.90
2022-10-03T12:31:48.183Z,15.90
2022-10-03T12:34:50.921Z,15.20
2022-10-03T12:37:57.187Z,14.90
2022-10-03T12:40:49.913Z,14.60
2022-10-03T12:44:31.485Z,14.20
2022-10-03T12:47:37.662Z,14.30
2022-10-03T12:50:36.895Z,14.00
2022-10-03T12:53:15.642Z,14.20
2022-10-03T12:56:13.894Z,14.20
2022-10-03T12:59:00.406Z,13.90
2022-10-03T13:02:24.421Z,13.70
2022-10-03T13:05:29.882Z,13.90
2022-10-03T13:08:28.775Z,14.40
2022-10-03T13:11:29.858Z,16.50
2022-10-03T13:14:28.047Z,18.60
2022-10-03T13:17:27.891Z,19.90
2022-10-03T13:20:11.231Z,19.60
2022-10-03T13:23:03.247Z,19.00
2022-10-03T13:25:45.242Z,18.30
2022-10-03T13:28:41.274Z,17.50
2022-10-03T13:31:25.694Z,17.20
2022-10-03T13:34:03.482Z,17.20
2022-10-03T13:36:46.098Z,18.50
2022-10-03T13:39:29.833Z,21.40
2022-10-03T13:41:59.720Z,22.20
2022-10-03T13:45:03.369Z,22.80
2022-10-03T13:47:55.745Z,25.00
2022-10-03T13:50:36.535Z,24.40
2022-10-03T13:53:24.538Z,25.30
2022-10-03T13:56:14.255Z,23.30
2022-10-03T13:59:47.776Z,20.10
2022-10-03T14:03:16.927Z,18.30
2022-10-03T14:06:04.303Z,17.10
2022-10-03T14:09:33.471Z,16.30
2022-10-03T14:12:28.183Z,16.00
2022-10-03T14:16:13.277Z,15.70
2022-10-03T14:19:33.488Z,15.50
2022-10-03T14:22:49.259Z,15.10
2022-10-03T14:25:39.114Z,15.00
2022-10-03T14:28:43.151Z,14.70
2022-10-03T14:31:32.218Z,14.50
2022-10-03T14:34:53.051Z,14.20
2022-10-03T14:37:48.244Z,16.40
2022-10-03T14:41:03.981Z,19.30
2022-10-03T14:43:50.508Z,20.60
2022-10-03T14:46:30.853Z,22.50
2022-10-03T14:49:12.464Z,23.90
2022-10-03T14:52:03.312Z,24.50
2022-10-03T14:54:37.522Z,24.70
2022-10-03T14:58:10.377Z,23.80
2022-10-03T15:01:19.225Z,23.80
2022-10-03T15:04:17.000Z,21.30
2022-10-03T15:06:47.991Z,20.40
2022-10-03T15:09:25.042Z,20.60
2022-10-03T15:12:33.248Z,21.30
2022-10-03T15:15:06.294Z,21.30
2022-10-03T15:17:50.924Z,20.60
2022-10-03T15:20:26.938Z,18.90
2022-10-03T15:23:02.658Z,17.30
2022-10-03T15:25:39.579Z,16.30
2022-10-03T15:28:36.823Z,15.60
2022-10-03T15:31:35.592Z,15.10
2022-10-03T15:34:31.761Z,14.80
2022-10-03T15:37:13.755Z,14.50
2022-10-03T15:39:43.737Z,14.20
2022-10-03T15:42:10.456Z,14.00
2022-10-03T15:44:53.234Z,13.80
2022-10-03T15:47:29.532Z,13.50
2022-10-03T15:50:34.359Z,13.30
2022-10-03T15:53:35.528Z,13.20
2022-10-03T15:56:33.797Z,13.40
2022-10-03T15:59:19.585Z,13.70
2022-10-03T16:01:53.689Z,13.60
2022-10-03T16:04:33.399Z,13.40
2022-10-03T16:07:46.066Z,13.40
2022-10-03T16:10:29.662Z,13.30
2022-10-03T16:13:16.577Z,13.00
2022-10-03T16:16:17.784Z,12.80
2022-10-03T16:19:36.373Z,12.60
2022-10-03T16:22:49.572Z,12.50
2022-10-03T16:25:48.181Z,12.30
2022-10-03T16:28:25.582Z,12.20
2022-10-03T16:31:06.511Z,12.10
2022-10-03T16:33:45.201Z,12.10
2022-10-03T16:36:21.014Z,12.10
2022-10-03T16:39:03.019Z,12.00
2022-10-03T16:41:43.852Z,12.00
2022-10-03T16:44:34.104Z,12.00
2022-10-03T16:47:05.759Z,12.00
2022-10-03T16:50:14.102Z,11.90
2022-10-03T16:52:48.254Z,11.80
2022-10-03T16:55:18.098Z,11.80
2022-10-03T16:57:59.770Z,11.70
2022-10-03T17:01:22.218Z,11.70
2022-10-03T17:04:28.618Z,11.60
2022-10-03T17:07:02.953Z,11.50
2022-10-03T17:09:51.196Z,11.50
2022-10-03T17:12:42.222Z,11.40
2022-10-03T17:15:28.931Z,11.20
2022-10-03T17:18:30.595Z,11.10
2022-10-03T17:21:29.739Z,11.00
2022-10-03T17:24:21.011Z,10.80
2022-10-03T17:26:54.803Z,10.70
2022-10-03T17:29:49.375Z,10.50
2022-10-03T17:32:44.879Z,10.40
2022-10-03T17:36:02.827Z,10.30
2022-10-03T17:39:22.324Z,10.20
2022-10-03T17:42:16.454Z,10.00
2022-10-03T17:45:16.520Z,9.80
2022-10-03T17:48:08.019Z,9.50
2022-10-03T17:51:30.023Z,9.30
2022-10-03T17:54:02.034Z,9.10
2022-10-03T17:56:34.173Z,9.00
2022-10-03T17:59:18.408Z,8.90
2022-10-03T18:01:53.730Z,8.70
2022-10-03T18:04:41.076Z,8.60
2022-10-03T18:07:26.452Z,8.50
2022-10-03T18:09:56.094Z,8.40
2022-10-03T18:12:40.259Z,8.30
2022-10-03T18:15:56.785Z,8.30
2022-10-03T18:19:07.434Z,8.20
2022-10-03T18:22:18.532Z,8.00
2022-10-03T18:26:02.110Z,7.90
2022-10-03T18:29:00.073Z,7.70
2022-10-03T18:31:34.248Z,7.60
2022-10-03T18:34:34.940Z,7.60
2022-10-03T18:37:23.633Z,7.60
2022-10-03T18:39:56.469Z,7.60
2022-10-03T18:42:29.664Z,7.40
2022-10-03T18:45:01.317Z,7.30
2022-10-03T18:47:41.361Z,7.20
2022-10-03T18:50:42.813Z,7.10
2022-10-03T18:53:48.007Z,7.10
2022-10-03T18:56:26.958Z,7.10
2022-10-03T18:59:06.025Z,7.20
2022-10-03T19:01:52.447Z,7.20
2022-10-03T19:04:54.801Z,6.90
2022-10-03T19:07:39.074Z,6.80
2022-10-03T19:11:30.869Z,6.80
2022-10-03T19:14:12.403Z,6.70
2022-10-03T19:17:14.247Z,6.70
2022-10-03T19:20:23.810Z,6.70
2022-10-03T19:23:18.709Z,6.70
2022-10-03T19:26:01.257Z,6.70
2022-10-03T19:28:52.518Z,6.70
2022-10-03T19:31:32.831Z,6.70
2022-10-03T19:34:14.654Z,6.60
2022-10-03T19:36:43.249Z,6.40
2022-10-03T19:39:21.634Z,6.30
2022-10-03T19:42:16.110Z,6.20
2022-10-03T19:44:44.162Z,6.20
2022-10-03T19:47:40.446Z,6.10
2022-10-03T19:50:35.982Z,6.00
2022-10-03T19:53:17.410Z,6.00
2022-10-03T19:55:47.739Z,6.10
2022-10-03T19:58:24.349Z,6.10
2022-10-03T20:01:00.316Z,6.00
2022-10-03T20:03:53.026Z,6.00
2022-10-03T20:06:33.223Z,5.90
2022-10-03T20:09:06.022Z,6.00
2022-10-03T20:11:57.027Z,5.90
2022-10-03T20:14:33.463Z,5.80
2022-10-03T20:17:21.834Z,5.80
2022-10-03T20:20:04.364Z,5.80
2022-10-03T20:22:36.318Z,6.00
2022-10-03T20:25:18.929Z,6.00
2022-10-03T20:27:54.202Z,5.90
2022-10-03T20:30:53.659Z,5.80
2022-10-03T20:33:31.576Z,5.50
2022-10-03T20:36:07.182Z,5.50
2022-10-03T20:39:15.727Z,5.50
2022-10-03T20:42:10.364Z,5.50
2022-10-03T20:45:29.414Z,5.60
2022-10-03T20:48:23.591Z,5.40
2022-10-03T20:50:50.669Z,5.30
2022-10-03T20:53:31.402Z,5.20
2022-10-03T20:56:10.846Z,5.20
2022-10-03T20:58:55.019Z,5.20
2022-10-03T21:01:29.940Z,5.30
2022-10-03T21:04:24.212Z,5.30
2022-10-03T21:07:09.007Z,5.40
2022-10-03T21:09:55.144Z,5.30
2022-10-03T21:12:34.988Z,5.10
2022-10-03T21:15:43.711Z,4.90
2022-10-03T21:18:24.736Z,4.90
2022-10-03T21:21:51.067Z,4.80
2022-10-03T21:24:47.380Z,4.90
2022-10-03T21:27:18.160Z,5.10
2022-10-03T21:30:15.708Z,5.20
2022-10-03T21:33:11.712Z,5.00
2022-10-03T21:35:44.160Z,4.90
2022-10-03T21:38:34.748Z,4.90
2022-10-03T21:41:53.020Z,4.90
2022-10-03T21:45:12.263Z,4.80
2022-10-03T21:48:02.807Z,4.70
2022-10-03T21:50:44.772Z,4.70
2022-10-03T21:53:17.625Z,4.70
2022-10-03T21:56:27.488Z,4.80
2022-10-03T21:59:32.448Z,4.80
2022-10-03T22:03:22.860Z,4.70
2022-10-03T22:06:03.662Z,4.50
2022-10-03T22:08:37.870Z,4.50
2022-10-03T22:11:27.709Z,4.70
2022-10-03T22:14:28.158Z,4.80
2022-10-03T22:17:59.208Z,4.70
2022-10-03T22:20:32.572Z,4.50
2022-10-03T22:23:38.645Z,4.30
2022-10-03T22:26:37.988Z,4.20
2022-10-03T22:29:29.069Z,4.10
2022-10-03T22:32:56.149Z,4.10
2022-10-03T22:35:59.253Z,4.10
2022-10-03T22:38:36.179Z,4.00
2022-10-03T22:41:30.593Z,4.00
2022-10-03T22:44:01.253Z,4.10
2022-10-03T22:46:33.489Z,4.00
2022-10-03T22:49:26.662Z,4.00
2022-10-03T22:52:00.210Z,3.90
2022-10-03T22:54:39.342Z,3.80
2022-10-03T22:57:13.639Z,3.80
2022-10-03T22:59:53.654Z,3.80
2022-10-03T23:02:49.712Z,3.80
2022-10-03T23:05:58.894Z,3.70
2022-10-03T23:09:02.349Z,3.70
2022-10-03T23:11:34.406Z,3.60
2022-10-03T23:14:29.102Z,3.50
2022-10-03T23:17:47.444Z,3.60
2022-10-03T23:21:03.221Z,3.70
2022-10-03T23:24:00.579Z,3.80
2022-10-03T23:27:21.334Z,3.90
2022-10-03T23:30:14.758Z,3.80
2022-10-03T23:32:47.422Z,3.70
2022-10-03T23:35:41.322Z,3.70
2022-10-03T23:38:33.171Z,3.70
2022-10-03T23:41:13.350Z,3.60
2022-10-03T23:43:56.006Z,3.50
2022-10-03T23:46:30.628Z,3.50
2022-10-03T23:49:02.399Z,3.40
2022-10-03T23:51:38.300Z,3.30
2022-10-03T23:54:11.837Z,3.30
2022-10-03T23:56:46.375Z,3.30
2022-10-03T23:59:24.708Z,3.20
